sensor_id;sensor_type;location;lat;lon;timestamp;P1;durP1;ratioP1;P2;durP2;ratioP2
51578;SDS011;47998;53.242;6.386;2022-07-18T00:01:32;11.73;;;8.73;;
51578;SDS011;47998;53.242;6.386;2022-07-18T00:03:58;12.00;;;8.90;;
51578;SDS011;47998;53.242;6.386;2022-07-18T00:06:24;12.15;;;8.88;;
51578;SDS011;47998;53.242;6.386;2022-07-18T00:08:51;10.93;;;9.40;;
51578;SDS011;47998;53.242;6.386;2022-07-18T00:11:16;11.43;;;8.57;;
51578;SDS011;47998;53.242;6.386;2022-07-18T00:13:42;13.60;;;9.45;;
51578;SDS011;47998;53.242;6.386;2022-07-18T00:16:08;11.55;;;9.73;;
51578;SDS011;47998;53.242;6.386;2022-07-18T00:18:33;13.27;;;9.88;;
51578;SDS011;47998;53.242;6.386;2022-07-18T00:20:59;13.25;;;10.00;;
51578;SDS011;47998;53.242;6.386;2022-07-18T00:23:25;13.48;;;10.55;;
51578;SDS011;47998;53.242;6.386;2022-07-18T00:25:50;13.10;;;10.05;;
51578;SDS011;47998;53.242;6.386;2022-07-18T00:28:16;12.88;;;9.68;;
51578;SDS011;47998;53.242;6.386;2022-07-18T00:30:42;16.55;;;11.02;;
51578;SDS011;47998;53.242;6.386;2022-07-18T00:33:08;13.95;;;9.82;;
51578;SDS011;47998;53.242;6.386;2022-07-18T00:35:34;10.88;;;8.70;;
51578;SDS011;47998;53.242;6.386;2022-07-18T00:38:00;11.52;;;8.27;;
51578;SDS011;47998;53.242;6.386;2022-07-18T00:40:29;13.45;;;8.52;;
51578;SDS011;47998;53.242;6.386;2022-07-18T00:42:56;11.88;;;9.57;;
51578;SDS011;47998;53.242;6.386;2022-07-18T00:45:22;11.60;;;8.68;;
51578;SDS011;47998;53.242;6.386;2022-07-18T00:47:48;13.05;;;9.15;;
51578;SDS011;47998;53.242;6.386;2022-07-18T00:50:16;11.38;;;8.43;;
51578;SDS011;47998;53.242;6.386;2022-07-18T00:52:43;10.90;;;8.40;;
51578;SDS011;47998;53.242;6.386;2022-07-18T00:55:09;10.05;;;8.27;;
51578;SDS011;47998;53.242;6.386;2022-07-18T00:57:35;11.73;;;8.70;;
51578;SDS011;47998;53.242;6.386;2022-07-18T01:00:03;11.20;;;8.68;;
51578;SDS011;47998;53.242;6.386;2022-07-18T01:02:49;11.48;;;9.52;;
51578;SDS011;47998;53.242;6.386;2022-07-18T01:05:15;12.90;;;9.65;;
51578;SDS011;47998;53.242;6.386;2022-07-18T01:07:40;12.60;;;9.75;;
51578;SDS011;47998;53.242;6.386;2022-07-18T01:10:06;10.98;;;9.63;;
51578;SDS011;47998;53.242;6.386;2022-07-18T01:12:32;11.55;;;9.48;;
51578;SDS011;47998;53.242;6.386;2022-07-18T01:14:58;11.40;;;8.70;;
51578;SDS011;47998;53.242;6.386;2022-07-18T01:17:24;12.13;;;8.25;;
51578;SDS011;47998;53.242;6.386;2022-07-18T01:19:50;12.77;;;8.43;;
51578;SDS011;47998;53.242;6.386;2022-07-18T01:22:17;9.25;;;7.65;;
51578;SDS011;47998;53.242;6.386;2022-07-18T01:24:44;10.70;;;8.02;;
51578;SDS011;47998;53.242;6.386;2022-07-18T01:27:16;13.35;;;9.52;;
51578;SDS011;47998;53.242;6.386;2022-07-18T01:29:44;10.82;;;8.50;;
51578;SDS011;47998;53.242;6.386;2022-07-18T01:32:11;11.10;;;8.57;;
51578;SDS011;47998;53.242;6.386;2022-07-18T01:34:37;13.93;;;8.73;;
51578;SDS011;47998;53.242;6.386;2022-07-18T01:37:04;14.80;;;9.55;;
51578;SDS011;47998;53.242;6.386;2022-07-18T01:39:30;13.63;;;9.82;;
51578;SDS011;47998;53.242;6.386;2022-07-18T01:41:57;11.88;;;8.95;;
51578;SDS011;47998;53.242;6.386;2022-07-18T01:44:24;10.15;;;9.02;;
51578;SDS011;47998;53.242;6.386;2022-07-18T01:46:50;13.85;;;9.98;;
51578;SDS011;47998;53.242;6.386;2022-07-18T01:49:16;13.20;;;9.43;;
51578;SDS011;47998;53.242;6.386;2022-07-18T01:51:45;13.80;;;10.32;;
51578;SDS011;47998;53.242;6.386;2022-07-18T01:54:11;12.60;;;9.13;;
51578;SDS011;47998;53.242;6.386;2022-07-18T01:56:38;12.60;;;9.32;;
51578;SDS011;47998;53.242;6.386;2022-07-18T01:59:03;12.13;;;9.02;;
51578;SDS011;47998;53.242;6.386;2022-07-18T02:01:29;12.75;;;10.07;;
51578;SDS011;47998;53.242;6.386;2022-07-18T02:03:55;13.02;;;9.30;;
51578;SDS011;47998;53.242;6.386;2022-07-18T02:06:20;10.63;;;8.23;;
51578;SDS011;47998;53.242;6.386;2022-07-18T02:08:46;13.90;;;8.25;;
51578;SDS011;47998;53.242;6.386;2022-07-18T02:11:12;11.73;;;8.32;;
51578;SDS011;47998;53.242;6.386;2022-07-18T02:13:38;13.40;;;8.75;;
51578;SDS011;47998;53.242;6.386;2022-07-18T02:16:04;9.45;;;7.72;;
51578;SDS011;47998;53.242;6.386;2022-07-18T02:18:30;13.77;;;8.02;;
51578;SDS011;47998;53.242;6.386;2022-07-18T02:21:00;12.35;;;9.43;;
51578;SDS011;47998;53.242;6.386;2022-07-18T02:23:26;11.43;;;8.30;;
51578;SDS011;47998;53.242;6.386;2022-07-18T02:25:52;14.32;;;7.97;;
51578;SDS011;47998;53.242;6.386;2022-07-18T02:28:18;12.35;;;8.48;;
51578;SDS011;47998;53.242;6.386;2022-07-18T02:30:44;12.88;;;9.10;;
51578;SDS011;47998;53.242;6.386;2022-07-18T02:33:10;9.50;;;8.05;;
51578;SDS011;47998;53.242;6.386;2022-07-18T02:35:36;11.40;;;8.07;;
51578;SDS011;47998;53.242;6.386;2022-07-18T02:38:02;11.48;;;8.70;;
51578;SDS011;47998;53.242;6.386;2022-07-18T02:40:28;11.15;;;7.88;;
51578;SDS011;47998;53.242;6.386;2022-07-18T02:42:53;12.98;;;8.00;;
51578;SDS011;47998;53.242;6.386;2022-07-18T02:45:19;11.73;;;8.15;;
51578;SDS011;47998;53.242;6.386;2022-07-18T02:47:45;13.98;;;7.43;;
51578;SDS011;47998;53.242;6.386;2022-07-18T02:50:12;10.57;;;7.40;;
51578;SDS011;47998;53.242;6.386;2022-07-18T02:52:40;16.35;;;10.15;;
51578;SDS011;47998;53.242;6.386;2022-07-18T02:55:06;12.93;;;7.63;;
51578;SDS011;47998;53.242;6.386;2022-07-18T02:57:34;12.02;;;8.48;;
51578;SDS011;47998;53.242;6.386;2022-07-18T03:00:00;13.18;;;8.68;;
51578;SDS011;47998;53.242;6.386;2022-07-18T03:02:26;15.82;;;9.02;;
51578;SDS011;47998;53.242;6.386;2022-07-18T03:04:52;12.32;;;8.35;;
51578;SDS011;47998;53.242;6.386;2022-07-18T03:07:18;12.65;;;8.40;;
51578;SDS011;47998;53.242;6.386;2022-07-18T03:09:44;10.68;;;8.30;;
51578;SDS011;47998;53.242;6.386;2022-07-18T03:12:09;12.45;;;9.10;;
51578;SDS011;47998;53.242;6.386;2022-07-18T03:14:35;11.45;;;8.02;;
51578;SDS011;47998;53.242;6.386;2022-07-18T03:17:01;12.32;;;8.98;;
51578;SDS011;47998;53.242;6.386;2022-07-18T03:19:26;17.63;;;8.60;;
51578;SDS011;47998;53.242;6.386;2022-07-18T03:21:52;13.23;;;8.60;;
51578;SDS011;47998;53.242;6.386;2022-07-18T03:24:18;15.10;;;8.23;;
51578;SDS011;47998;53.242;6.386;2022-07-18T03:26:43;14.23;;;8.70;;
51578;SDS011;47998;53.242;6.386;2022-07-18T03:29:10;12.50;;;8.93;;
51578;SDS011;47998;53.242;6.386;2022-07-18T03:31:36;11.95;;;9.00;;
51578;SDS011;47998;53.242;6.386;2022-07-18T03:34:02;10.50;;;7.70;;
51578;SDS011;47998;53.242;6.386;2022-07-18T03:36:28;11.73;;;9.15;;
51578;SDS011;47998;53.242;6.386;2022-07-18T03:38:54;11.35;;;9.07;;
51578;SDS011;47998;53.242;6.386;2022-07-18T03:41:19;13.10;;;8.75;;
51578;SDS011;47998;53.242;6.386;2022-07-18T03:43:45;14.23;;;9.20;;
51578;SDS011;47998;53.242;6.386;2022-07-18T03:46:11;13.45;;;9.07;;
51578;SDS011;47998;53.242;6.386;2022-07-18T03:48:37;13.10;;;8.60;;
51578;SDS011;47998;53.242;6.386;2022-07-18T03:51:02;10.77;;;8.43;;
51578;SDS011;47998;53.242;6.386;2022-07-18T03:53:29;11.38;;;8.13;;
51578;SDS011;47998;53.242;6.386;2022-07-18T03:55:55;12.23;;;8.52;;
51578;SDS011;47998;53.242;6.386;2022-07-18T03:58:21;10.63;;;8.15;;
51578;SDS011;47998;53.242;6.386;2022-07-18T04:00:47;10.98;;;7.63;;
51578;SDS011;47998;53.242;6.386;2022-07-18T04:03:13;14.13;;;7.90;;
51578;SDS011;47998;53.242;6.386;2022-07-18T04:05:39;12.13;;;7.57;;
51578;SDS011;47998;53.242;6.386;2022-07-18T04:08:04;12.00;;;8.07;;
51578;SDS011;47998;53.242;6.386;2022-07-18T04:10:30;11.23;;;7.85;;
51578;SDS011;47998;53.242;6.386;2022-07-18T04:12:56;12.55;;;7.68;;
51578;SDS011;47998;53.242;6.386;2022-07-18T04:15:23;9.88;;;7.18;;
51578;SDS011;47998;53.242;6.386;2022-07-18T04:17:50;9.07;;;6.70;;
51578;SDS011;47998;53.242;6.386;2022-07-18T04:20:16;11.48;;;7.22;;
51578;SDS011;47998;53.242;6.386;2022-07-18T04:23:03;11.20;;;7.65;;
51578;SDS011;47998;53.242;6.386;2022-07-18T04:25:34;11.30;;;7.38;;
51578;SDS011;47998;53.242;6.386;2022-07-18T04:28:02;11.95;;;7.53;;
51578;SDS011;47998;53.242;6.386;2022-07-18T04:30:28;13.55;;;7.43;;
51578;SDS011;47998;53.242;6.386;2022-07-18T04:32:54;11.27;;;7.40;;
51578;SDS011;47998;53.242;6.386;2022-07-18T04:35:21;14.05;;;7.93;;
51578;SDS011;47998;53.242;6.386;2022-07-18T04:37:48;10.55;;;7.22;;
51578;SDS011;47998;53.242;6.386;2022-07-18T04:40:14;11.48;;;6.50;;
51578;SDS011;47998;53.242;6.386;2022-07-18T04:42:43;13.25;;;7.10;;
51578;SDS011;47998;53.242;6.386;2022-07-18T04:45:09;8.85;;;7.05;;
51578;SDS011;47998;53.242;6.386;2022-07-18T04:47:35;10.27;;;6.70;;
51578;SDS011;47998;53.242;6.386;2022-07-18T04:50:02;8.57;;;6.53;;
51578;SDS011;47998;53.242;6.386;2022-07-18T04:52:35;9.75;;;6.45;;
51578;SDS011;47998;53.242;6.386;2022-07-18T04:57:27;12.23;;;7.22;;
51578;SDS011;47998;53.242;6.386;2022-07-18T04:59:53;11.52;;;6.47;;
51578;SDS011;47998;53.242;6.386;2022-07-18T05:02:19;8.52;;;5.88;;
51578;SDS011;47998;53.242;6.386;2022-07-18T05:04:44;10.82;;;6.50;;
51578;SDS011;47998;53.242;6.386;2022-07-18T05:07:10;8.48;;;6.35;;
51578;SDS011;47998;53.242;6.386;2022-07-18T05:09:36;8.73;;;6.25;;
51578;SDS011;47998;53.242;6.386;2022-07-18T05:12:01;8.43;;;5.72;;
51578;SDS011;47998;53.242;6.386;2022-07-18T05:14:27;9.23;;;6.28;;
51578;SDS011;47998;53.242;6.386;2022-07-18T05:16:53;10.45;;;5.63;;
51578;SDS011;47998;53.242;6.386;2022-07-18T05:19:19;8.35;;;6.00;;
51578;SDS011;47998;53.242;6.386;2022-07-18T05:21:44;10.40;;;6.05;;
51578;SDS011;47998;53.242;6.386;2022-07-18T05:24:10;13.95;;;5.80;;
51578;SDS011;47998;53.242;6.386;2022-07-18T05:26:36;10.25;;;5.18;;
51578;SDS011;47998;53.242;6.386;2022-07-18T05:29:03;12.98;;;5.63;;
51578;SDS011;47998;53.242;6.386;2022-07-18T05:31:29;12.85;;;5.38;;
51578;SDS011;47998;53.242;6.386;2022-07-18T05:33:54;9.45;;;5.13;;
51578;SDS011;47998;53.242;6.386;2022-07-18T05:36:20;10.13;;;5.25;;
51578;SDS011;47998;53.242;6.386;2022-07-18T05:38:46;6.78;;;4.57;;
51578;SDS011;47998;53.242;6.386;2022-07-18T05:41:11;8.82;;;4.97;;
51578;SDS011;47998;53.242;6.386;2022-07-18T05:43:37;6.22;;;4.47;;
51578;SDS011;47998;53.242;6.386;2022-07-18T05:46:03;6.70;;;4.22;;
51578;SDS011;47998;53.242;6.386;2022-07-18T05:48:29;11.07;;;5.15;;
51578;SDS011;47998;53.242;6.386;2022-07-18T05:50:55;9.82;;;4.90;;
51578;SDS011;47998;53.242;6.386;2022-07-18T05:53:20;16.90;;;6.70;;
51578;SDS011;47998;53.242;6.386;2022-07-18T05:55:46;14.77;;;5.45;;
51578;SDS011;47998;53.242;6.386;2022-07-18T05:58:12;10.73;;;5.22;;
51578;SDS011;47998;53.242;6.386;2022-07-18T06:00:37;14.25;;;5.25;;
51578;SDS011;47998;53.242;6.386;2022-07-18T06:03:03;10.68;;;4.20;;
51578;SDS011;47998;53.242;6.386;2022-07-18T06:05:29;8.38;;;3.88;;
51578;SDS011;47998;53.242;6.386;2022-07-18T06:07:55;10.40;;;4.22;;
51578;SDS011;47998;53.242;6.386;2022-07-18T06:10:21;12.52;;;4.70;;
51578;SDS011;47998;53.242;6.386;2022-07-18T06:12:48;10.05;;;3.88;;
51578;SDS011;47998;53.242;6.386;2022-07-18T06:15:15;9.70;;;4.00;;
51578;SDS011;47998;53.242;6.386;2022-07-18T06:17:41;9.95;;;4.10;;
51578;SDS011;47998;53.242;6.386;2022-07-18T06:20:07;11.85;;;4.60;;
51578;SDS011;47998;53.242;6.386;2022-07-18T06:22:33;5.63;;;3.25;;
51578;SDS011;47998;53.242;6.386;2022-07-18T06:25:00;6.07;;;3.22;;
51578;SDS011;47998;53.242;6.386;2022-07-18T06:27:26;6.75;;;3.58;;
51578;SDS011;47998;53.242;6.386;2022-07-18T06:29:52;9.10;;;3.00;;
51578;SDS011;47998;53.242;6.386;2022-07-18T06:32:17;5.00;;;2.67;;
51578;SDS011;47998;53.242;6.386;2022-07-18T06:34:43;5.97;;;3.10;;
51578;SDS011;47998;53.242;6.386;2022-07-18T06:37:09;7.03;;;2.60;;
51578;SDS011;47998;53.242;6.386;2022-07-18T06:39:35;3.75;;;2.97;;
51578;SDS011;47998;53.242;6.386;2022-07-18T06:42:01;8.32;;;2.90;;
51578;SDS011;47998;53.242;6.386;2022-07-18T06:44:26;4.72;;;3.00;;
51578;SDS011;47998;53.242;6.386;2022-07-18T06:46:52;18.98;;;4.55;;
51578;SDS011;47998;53.242;6.386;2022-07-18T06:49:18;8.30;;;3.90;;
51578;SDS011;47998;53.242;6.386;2022-07-18T06:51:44;13.07;;;3.75;;
51578;SDS011;47998;53.242;6.386;2022-07-18T06:54:10;5.80;;;2.92;;
51578;SDS011;47998;53.242;6.386;2022-07-18T06:56:36;6.13;;;3.00;;
51578;SDS011;47998;53.242;6.386;2022-07-18T06:59:01;7.75;;;2.90;;
51578;SDS011;47998;53.242;6.386;2022-07-18T07:01:28;7.07;;;2.95;;
51578;SDS011;47998;53.242;6.386;2022-07-18T07:03:54;6.13;;;2.85;;
51578;SDS011;47998;53.242;6.386;2022-07-18T07:06:19;7.30;;;2.75;;
51578;SDS011;47998;53.242;6.386;2022-07-18T07:08:45;6.80;;;2.90;;
51578;SDS011;47998;53.242;6.386;2022-07-18T07:11:11;11.50;;;2.60;;
51578;SDS011;47998;53.242;6.386;2022-07-18T07:13:36;5.72;;;2.30;;
51578;SDS011;47998;53.242;6.386;2022-07-18T07:16:02;10.00;;;3.17;;
51578;SDS011;47998;53.242;6.386;2022-07-18T07:18:28;5.35;;;2.63;;
51578;SDS011;47998;53.242;6.386;2022-07-18T07:20:54;6.13;;;2.22;;
51578;SDS011;47998;53.242;6.386;2022-07-18T07:23:20;10.57;;;3.30;;
51578;SDS011;47998;53.242;6.386;2022-07-18T07:25:45;10.18;;;2.53;;
51578;SDS011;47998;53.242;6.386;2022-07-18T07:28:11;6.13;;;2.25;;
51578;SDS011;47998;53.242;6.386;2022-07-18T07:30:37;5.60;;;2.60;;
51578;SDS011;47998;53.242;6.386;2022-07-18T07:33:03;6.00;;;2.38;;
51578;SDS011;47998;53.242;6.386;2022-07-18T07:35:29;3.72;;;2.00;;
51578;SDS011;47998;53.242;6.386;2022-07-18T07:37:55;5.45;;;2.40;;
51578;SDS011;47998;53.242;6.386;2022-07-18T07:40:23;7.13;;;2.47;;
51578;SDS011;47998;53.242;6.386;2022-07-18T07:42:50;4.88;;;2.40;;
51578;SDS011;47998;53.242;6.386;2022-07-18T07:45:16;6.60;;;2.45;;
51578;SDS011;47998;53.242;6.386;2022-07-18T07:47:43;4.00;;;2.30;;
51578;SDS011;47998;53.242;6.386;2022-07-18T07:50:09;4.60;;;1.95;;
51578;SDS011;47998;53.242;6.386;2022-07-18T07:52:36;5.32;;;1.88;;
51578;SDS011;47998;53.242;6.386;2022-07-18T07:55:03;4.78;;;1.98;;
51578;SDS011;47998;53.242;6.386;2022-07-18T07:57:30;3.95;;;1.98;;
51578;SDS011;47998;53.242;6.386;2022-07-18T07:59:55;7.00;;;1.85;;
51578;SDS011;47998;53.242;6.386;2022-07-18T08:02:21;4.38;;;1.60;;
51578;SDS011;47998;53.242;6.386;2022-07-18T08:04:47;2.65;;;1.25;;
51578;SDS011;47998;53.242;6.386;2022-07-18T08:07:15;5.72;;;1.70;;
51578;SDS011;47998;53.242;6.386;2022-07-18T08:09:41;6.75;;;2.00;;
51578;SDS011;47998;53.242;6.386;2022-07-18T08:12:07;5.15;;;2.30;;
51578;SDS011;47998;53.242;6.386;2022-07-18T08:14:33;8.15;;;2.00;;
51578;SDS011;47998;53.242;6.386;2022-07-18T08:17:00;5.07;;;1.67;;
51578;SDS011;47998;53.242;6.386;2022-07-18T08:19:25;4.55;;;1.90;;
51578;SDS011;47998;53.242;6.386;2022-07-18T08:21:51;2.60;;;1.30;;
51578;SDS011;47998;53.242;6.386;2022-07-18T08:24:17;5.05;;;2.03;;
51578;SDS011;47998;53.242;6.386;2022-07-18T08:26:43;3.53;;;1.33;;
51578;SDS011;47998;53.242;6.386;2022-07-18T08:29:08;3.60;;;1.50;;
51578;SDS011;47998;53.242;6.386;2022-07-18T08:31:34;6.05;;;1.42;;
51578;SDS011;47998;53.242;6.386;2022-07-18T08:34:01;4.97;;;1.60;;
51578;SDS011;47998;53.242;6.386;2022-07-18T08:36:27;3.38;;;1.13;;
51578;SDS011;47998;53.242;6.386;2022-07-18T08:38:53;2.83;;;1.50;;
51578;SDS011;47998;53.242;6.386;2022-07-18T08:41:20;4.38;;;1.27;;
51578;SDS011;47998;53.242;6.386;2022-07-18T08:43:48;7.38;;;1.40;;
51578;SDS011;47998;53.242;6.386;2022-07-18T08:46:14;2.80;;;1.30;;
51578;SDS011;47998;53.242;6.386;2022-07-18T08:48:45;4.60;;;1.60;;
51578;SDS011;47998;53.242;6.386;2022-07-18T08:51:10;5.38;;;1.63;;
51578;SDS011;47998;53.242;6.386;2022-07-18T08:53:37;4.45;;;1.30;;
51578;SDS011;47998;53.242;6.386;2022-07-18T08:56:03;6.40;;;1.45;;
51578;SDS011;47998;53.242;6.386;2022-07-18T08:58:30;5.50;;;1.38;;
51578;SDS011;47998;53.242;6.386;2022-07-18T09:00:56;6.45;;;1.38;;
51578;SDS011;47998;53.242;6.386;2022-07-18T09:03:26;5.70;;;1.30;;
51578;SDS011;47998;53.242;6.386;2022-07-18T09:06:04;4.68;;;1.80;;
51578;SDS011;47998;53.242;6.386;2022-07-18T09:08:33;5.13;;;1.23;;
51578;SDS011;47998;53.242;6.386;2022-07-18T09:11:00;5.22;;;1.35;;
51578;SDS011;47998;53.242;6.386;2022-07-18T09:18:35;4.20;;;1.48;;
51578;SDS011;47998;53.242;6.386;2022-07-18T09:21:10;4.55;;;1.45;;
51578;SDS011;47998;53.242;6.386;2022-07-18T09:23:41;4.50;;;1.65;;
51578;SDS011;47998;53.242;6.386;2022-07-18T09:26:09;2.83;;;1.13;;
51578;SDS011;47998;53.242;6.386;2022-07-18T09:28:49;6.65;;;1.30;;
51578;SDS011;47998;53.242;6.386;2022-07-18T09:31:20;5.15;;;1.50;;
51578;SDS011;47998;53.242;6.386;2022-07-18T09:33:54;9.50;;;1.90;;
51578;SDS011;47998;53.242;6.386;2022-07-18T09:36:21;7.20;;;1.38;;
51578;SDS011;47998;53.242;6.386;2022-07-18T09:38:47;6.90;;;1.70;;
51578;SDS011;47998;53.242;6.386;2022-07-18T09:41:13;4.55;;;1.38;;
51578;SDS011;47998;53.242;6.386;2022-07-18T09:43:39;8.88;;;2.22;;
51578;SDS011;47998;53.242;6.386;2022-07-18T09:46:06;6.10;;;1.48;;
51578;SDS011;47998;53.242;6.386;2022-07-18T09:48:32;6.57;;;1.63;;
51578;SDS011;47998;53.242;6.386;2022-07-18T09:50:59;3.20;;;1.20;;
51578;SDS011;47998;53.242;6.386;2022-07-18T09:53:40;6.40;;;1.93;;
51578;SDS011;47998;53.242;6.386;2022-07-18T09:56:10;5.47;;;1.60;;
51578;SDS011;47998;53.242;6.386;2022-07-18T09:58:49;2.90;;;1.60;;
51578;SDS011;47998;53.242;6.386;2022-07-18T10:01:16;6.07;;;1.63;;
51578;SDS011;47998;53.242;6.386;2022-07-18T10:03:42;4.32;;;1.60;;
51578;SDS011;47998;53.242;6.386;2022-07-18T10:06:07;3.58;;;1.70;;
51578;SDS011;47998;53.242;6.386;2022-07-18T10:08:34;3.78;;;1.50;;
51578;SDS011;47998;53.242;6.386;2022-07-18T10:11:02;4.32;;;1.90;;
51578;SDS011;47998;53.242;6.386;2022-07-18T10:13:29;2.97;;;1.38;;
51578;SDS011;47998;53.242;6.386;2022-07-18T10:15:56;4.13;;;1.90;;
51578;SDS011;47998;53.242;6.386;2022-07-18T10:18:24;3.90;;;1.40;;
51578;SDS011;47998;53.242;6.386;2022-07-18T10:21:05;3.80;;;1.92;;
51578;SDS011;47998;53.242;6.386;2022-07-18T10:23:54;7.82;;;2.10;;
51578;SDS011;47998;53.242;6.386;2022-07-18T10:26:20;6.45;;;2.28;;
51578;SDS011;47998;53.242;6.386;2022-07-18T10:36:36;3.83;;;1.75;;
51578;SDS011;47998;53.242;6.386;2022-07-18T10:39:13;5.20;;;2.35;;
51578;SDS011;47998;53.242;6.386;2022-07-18T10:57:31;7.18;;;2.78;;
51578;SDS011;47998;53.242;6.386;2022-07-18T11:00:05;5.45;;;2.65;;
51578;SDS011;47998;53.242;6.386;2022-07-18T11:02:42;4.13;;;2.67;;
51578;SDS011;47998;53.242;6.386;2022-07-18T11:16:10;6.82;;;2.95;;
51578;SDS011;47998;53.242;6.386;2022-07-18T11:21:17;4.35;;;2.70;;
51578;SDS011;47998;53.242;6.386;2022-07-18T11:23:43;7.07;;;2.53;;
51578;SDS011;47998;53.242;6.386;2022-07-18T11:26:15;4.20;;;2.35;;
51578;SDS011;47998;53.242;6.386;2022-07-18T11:28:41;3.78;;;2.35;;
51578;SDS011;47998;53.242;6.386;2022-07-18T11:31:09;8.85;;;3.13;;
51578;SDS011;47998;53.242;6.386;2022-07-18T11:33:37;4.68;;;2.53;;
51578;SDS011;47998;53.242;6.386;2022-07-18T11:36:12;5.90;;;2.65;;
51578;SDS011;47998;53.242;6.386;2022-07-18T11:38:47;4.93;;;2.38;;
51578;SDS011;47998;53.242;6.386;2022-07-18T11:41:16;4.43;;;2.95;;
51578;SDS011;47998;53.242;6.386;2022-07-18T11:43:43;4.50;;;2.05;;
51578;SDS011;47998;53.242;6.386;2022-07-18T11:46:10;6.50;;;2.78;;
51578;SDS011;47998;53.242;6.386;2022-07-18T11:48:38;4.50;;;2.17;;
51578;SDS011;47998;53.242;6.386;2022-07-18T11:51:15;3.90;;;2.30;;
51578;SDS011;47998;53.242;6.386;2022-07-18T11:53:42;6.55;;;2.90;;
51578;SDS011;47998;53.242;6.386;2022-07-18T11:56:09;5.35;;;2.83;;
51578;SDS011;47998;53.242;6.386;2022-07-18T11:58:36;4.90;;;2.72;;
51578;SDS011;47998;53.242;6.386;2022-07-18T12:01:03;4.53;;;2.72;;
51578;SDS011;47998;53.242;6.386;2022-07-18T12:03:30;8.82;;;3.10;;
51578;SDS011;47998;53.242;6.386;2022-07-18T12:05:58;7.10;;;2.90;;
51578;SDS011;47998;53.242;6.386;2022-07-18T12:08:53;5.40;;;2.97;;
51578;SDS011;47998;53.242;6.386;2022-07-18T12:11:38;4.18;;;2.30;;
51578;SDS011;47998;53.242;6.386;2022-07-18T12:16:43;5.20;;;2.45;;
51578;SDS011;47998;53.242;6.386;2022-07-18T12:19:12;4.28;;;2.88;;
51578;SDS011;47998;53.242;6.386;2022-07-18T12:24:17;4.45;;;2.65;;
51578;SDS011;47998;53.242;6.386;2022-07-18T12:35:21;4.03;;;2.50;;
51578;SDS011;47998;53.242;6.386;2022-07-18T12:38:02;4.22;;;2.28;;
51578;SDS011;47998;53.242;6.386;2022-07-18T12:43:25;5.45;;;3.03;;
51578;SDS011;47998;53.242;6.386;2022-07-18T12:45:53;4.85;;;2.90;;
51578;SDS011;47998;53.242;6.386;2022-07-18T12:48:21;6.55;;;2.95;;
51578;SDS011;47998;53.242;6.386;2022-07-18T12:50:54;5.85;;;2.75;;
51578;SDS011;47998;53.242;6.386;2022-07-18T12:53:22;6.43;;;3.08;;
51578;SDS011;47998;53.242;6.386;2022-07-18T12:55:48;6.15;;;2.72;;
51578;SDS011;47998;53.242;6.386;2022-07-18T12:58:14;5.13;;;3.25;;
51578;SDS011;47998;53.242;6.386;2022-07-18T13:00:39;6.03;;;3.42;;
51578;SDS011;47998;53.242;6.386;2022-07-18T13:03:05;5.00;;;3.47;;
51578;SDS011;47998;53.242;6.386;2022-07-18T13:05:31;3.70;;;3.30;;
51578;SDS011;47998;53.242;6.386;2022-07-18T13:07:57;7.97;;;3.38;;
51578;SDS011;47998;53.242;6.386;2022-07-18T13:10:23;7.15;;;3.50;;
51578;SDS011;47998;53.242;6.386;2022-07-18T13:12:49;5.38;;;2.92;;
51578;SDS011;47998;53.242;6.386;2022-07-18T13:15:15;4.90;;;3.08;;
51578;SDS011;47998;53.242;6.386;2022-07-18T13:17:43;5.00;;;2.85;;
51578;SDS011;47998;53.242;6.386;2022-07-18T13:20:09;5.72;;;2.63;;
51578;SDS011;47998;53.242;6.386;2022-07-18T13:22:35;4.28;;;2.92;;
51578;SDS011;47998;53.242;6.386;2022-07-18T13:25:06;6.57;;;3.38;;
51578;SDS011;47998;53.242;6.386;2022-07-18T13:27:34;6.00;;;3.42;;
51578;SDS011;47998;53.242;6.386;2022-07-18T13:30:00;5.40;;;3.20;;
51578;SDS011;47998;53.242;6.386;2022-07-18T13:32:27;5.30;;;3.10;;
51578;SDS011;47998;53.242;6.386;2022-07-18T13:34:53;4.32;;;2.90;;
51578;SDS011;47998;53.242;6.386;2022-07-18T13:37:20;5.10;;;3.83;;
51578;SDS011;47998;53.242;6.386;2022-07-18T13:39:46;5.82;;;3.45;;
51578;SDS011;47998;53.242;6.386;2022-07-18T13:42:11;3.92;;;3.10;;
51578;SDS011;47998;53.242;6.386;2022-07-18T13:44:37;4.35;;;2.67;;
51578;SDS011;47998;53.242;6.386;2022-07-18T13:47:03;6.13;;;3.50;;
51578;SDS011;47998;53.242;6.386;2022-07-18T13:49:29;7.78;;;3.13;;
51578;SDS011;47998;53.242;6.386;2022-07-18T13:51:54;4.55;;;3.20;;
51578;SDS011;47998;53.242;6.386;2022-07-18T13:54:20;3.97;;;3.08;;
51578;SDS011;47998;53.242;6.386;2022-07-18T13:56:46;4.93;;;3.03;;
51578;SDS011;47998;53.242;6.386;2022-07-18T13:59:12;5.68;;;3.08;;
51578;SDS011;47998;53.242;6.386;2022-07-18T14:01:38;4.15;;;2.70;;
51578;SDS011;47998;53.242;6.386;2022-07-18T14:04:04;4.47;;;2.90;;
51578;SDS011;47998;53.242;6.386;2022-07-18T14:06:30;4.95;;;3.20;;
51578;SDS011;47998;53.242;6.386;2022-07-18T14:08:56;4.10;;;2.75;;
51578;SDS011;47998;53.242;6.386;2022-07-18T14:11:21;3.75;;;2.58;;
51578;SDS011;47998;53.242;6.386;2022-07-18T14:13:47;5.90;;;2.72;;
51578;SDS011;47998;53.242;6.386;2022-07-18T14:16:13;7.82;;;3.30;;
51578;SDS011;47998;53.242;6.386;2022-07-18T14:18:39;4.63;;;2.90;;
51578;SDS011;47998;53.242;6.386;2022-07-18T14:21:05;4.60;;;3.10;;
51578;SDS011;47998;53.242;6.386;2022-07-18T14:23:31;9.27;;;3.47;;
51578;SDS011;47998;53.242;6.386;2022-07-18T14:25:57;13.65;;;3.53;;
51578;SDS011;47998;53.242;6.386;2022-07-18T14:28:22;6.45;;;3.22;;
51578;SDS011;47998;53.242;6.386;2022-07-18T14:30:48;11.07;;;3.20;;
51578;SDS011;47998;53.242;6.386;2022-07-18T14:33:14;6.20;;;3.03;;
51578;SDS011;47998;53.242;6.386;2022-07-18T14:35:39;3.28;;;2.72;;
51578;SDS011;47998;53.242;6.386;2022-07-18T14:38:05;4.90;;;3.38;;
51578;SDS011;47998;53.242;6.386;2022-07-18T14:40:31;5.70;;;2.60;;
51578;SDS011;47998;53.242;6.386;2022-07-18T14:42:57;6.93;;;2.92;;
51578;SDS011;47998;53.242;6.386;2022-07-18T14:45:22;12.05;;;3.30;;
51578;SDS011;47998;53.242;6.386;2022-07-18T14:47:48;7.88;;;2.95;;
51578;SDS011;47998;53.242;6.386;2022-07-18T14:50:14;7.28;;;2.92;;
51578;SDS011;47998;53.242;6.386;2022-07-18T14:52:40;4.13;;;2.70;;
51578;SDS011;47998;53.242;6.386;2022-07-18T14:55:06;5.60;;;2.42;;
51578;SDS011;47998;53.242;6.386;2022-07-18T14:57:33;5.38;;;2.78;;
51578;SDS011;47998;53.242;6.386;2022-07-18T14:59:59;6.93;;;2.75;;
51578;SDS011;47998;53.242;6.386;2022-07-18T15:02:25;4.13;;;2.67;;
51578;SDS011;47998;53.242;6.386;2022-07-18T15:04:50;5.47;;;2.60;;
51578;SDS011;47998;53.242;6.386;2022-07-18T15:07:16;5.28;;;2.72;;
51578;SDS011;47998;53.242;6.386;2022-07-18T15:09:42;3.00;;;2.17;;
51578;SDS011;47998;53.242;6.386;2022-07-18T15:12:08;5.30;;;2.88;;
51578;SDS011;47998;53.242;6.386;2022-07-18T15:14:34;4.80;;;2.80;;
51578;SDS011;47998;53.242;6.386;2022-07-18T15:17:00;4.15;;;2.50;;
51578;SDS011;47998;53.242;6.386;2022-07-18T15:19:25;4.18;;;2.88;;
51578;SDS011;47998;53.242;6.386;2022-07-18T15:21:51;5.38;;;2.53;;
51578;SDS011;47998;53.242;6.386;2022-07-18T15:24:17;5.07;;;2.30;;
51578;SDS011;47998;53.242;6.386;2022-07-18T15:26:42;4.95;;;2.65;;
51578;SDS011;47998;53.242;6.386;2022-07-18T15:29:08;5.03;;;2.50;;
51578;SDS011;47998;53.242;6.386;2022-07-18T15:31:34;5.03;;;2.80;;
51578;SDS011;47998;53.242;6.386;2022-07-18T15:33:59;6.13;;;2.75;;
51578;SDS011;47998;53.242;6.386;2022-07-18T15:36:25;4.35;;;2.47;;
51578;SDS011;47998;53.242;6.386;2022-07-18T15:38:51;8.63;;;3.00;;
51578;SDS011;47998;53.242;6.386;2022-07-18T15:41:17;3.70;;;2.70;;
51578;SDS011;47998;53.242;6.386;2022-07-18T15:43:45;3.00;;;2.65;;